Thursday, August 16, 2018, 5:34 PM EDT
Back to Local

KEEN, Keene, Dillant-hopkins Airport

Location: Keene, NH, United States Lat: 42.9
Local Time: 5:34 PM EDT (21:34 GMT) Lon: -72.267
Time Zone: US/Eastern Elev: 488 ft

Show me the last for .
Show Coded

Time T Td Feel RH Dir Speed Gust Alt SLP Vis Weather Sky Remarks
2018-08-16 16:56 - - - 0 310° 7 - 30.01 - 4 HZ CLR None
2018-08-16 15:56 - - - 0 330° 8 - 30.01 - 10 FEW060 None
2018-08-16 14:56 - - - 0 320° 9 21 30.01 - 10 CLR None
2018-08-16 13:56 - - - 0 330° 13 20 30.00 - 9 CLR None
2018-08-16 12:56 - - - 0 270° 13 - 30.01 - 10 CLR None
2018-08-16 11:56 - - - 0 310° 8 - 30.01 - 9 FEW038 None
2018-08-16 10:56 - - - 0 310° 6 - 30.01 - 10 BKN033 None
2018-08-16 10:07 - - - 0 - Calm - 30.02 - 10 FEW023 SCT031 None
2018-08-16 09:56 - - - 0 - Calm - 30.02 - 10 FEW023 BKN029 None
2018-08-16 08:56 - - - 0 - Calm - 30.01 - 9 CLR None
2018-08-16 08:03 - - - 0 - Calm - 30.01 - 5 HZ SCT002 None
2018-08-16 07:56 - - - 0 - Calm - 30.01 - 2 BR BKN002 Variable visibility
2018-08-16 07:52 - - - 0 - Calm - 30.01 - 0 BR OVC002 None
2018-08-16 07:43 - - - 0 - Calm - 30.01 - 0 FG OVC002 None
2018-08-16 07:35 - - - 0 - Calm - 30.01 - 0 FG OVC002 None
2018-08-16 07:24 - - - 0 - Calm - 30.00 - 0 BR OVC002 None
2018-08-16 06:56 - - - 0 - Calm - 30.00 - 0 FG OVC002 None
2018-08-16 05:56 - - - 0 - Calm - 29.98 - 0 FG OVC002 None
2018-08-16 05:14 - - - 0 - Calm - 29.97 - 0 FG OVC002 None
2018-08-16 05:05 - - - 0 - Calm - 29.97 - 0 FG OVC002 None
2018-08-16 05:02 - - - 0 - Calm - 29.97 - 1 BR OVC002 None
2018-08-16 04:56 - - - 0 - Calm - 29.97 - 2 BR OVC002 Variable visibility
2018-08-16 04:41 - - - 0 - Calm - 29.97 - 2 BR OVC002 Variable visibility
2018-08-16 04:25 - - - 0 - Calm - 29.97 - 1 BR OVC002 None
2018-08-16 04:10 - - - 0 - Calm - 29.96 - 0 FG OVC002 None
2018-08-16 04:05 - - - 0 - Calm - 29.96 - 1 BR OVC002 None
2018-08-16 03:56 - - - 0 - Calm - 29.96 - 2 BR OVC002 Variable visibility
2018-08-16 03:17 - - - 0 - Calm - 29.95 - 4 HZ BKN002 None
2018-08-16 02:56 - - - 0 - Calm - 29.95 - 5 HZ SCT002 None
2018-08-16 01:56 - - - 0 - Calm - 29.95 - 7 CLR None
2018-08-16 00:56 - - - 0 - Calm - 29.95 - 7 CLR None
2018-08-15 23:56 - - - 0 - Calm - 29.95 - 8 CLR None
2018-08-15 22:56 - - - 0 - Calm - 29.92 - 9 CLR None
2018-08-15 21:56 - - - 0 - Calm - 29.93 - 10 CLR None
2018-08-15 20:56 - - - 0 - Calm - 29.92 - 10 FEW075 None
2018-08-15 18:56 - - - 0 - Calm - 29.88 - 8 FEW055 None
2018-08-15 17:56 - - - 0 300° 3 - 29.86 - 10 CLR None

Support USWX by starting your Amazon purchase here.